sensor_id;sensor_type;location;lat;lon;timestamp;P1;durP1;ratioP1;P2;durP2;ratioP2
75593;SDS011;64176;49.156;7.810;2023-05-10T00:02:27;0.50;;;0.50;;
75593;SDS011;64176;49.156;7.810;2023-05-10T00:05:11;1.23;;;0.65;;
75593;SDS011;64176;49.156;7.810;2023-05-10T00:07:55;0.75;;;0.70;;
75593;SDS011;64176;49.156;7.810;2023-05-10T00:10:38;1.75;;;1.02;;
75593;SDS011;64176;49.156;7.810;2023-05-10T00:13:24;1.98;;;0.70;;
75593;SDS011;64176;49.156;7.810;2023-05-10T00:16:08;1.30;;;1.05;;
75593;SDS011;64176;49.156;7.810;2023-05-10T00:18:52;3.17;;;1.23;;
75593;SDS011;64176;49.156;7.810;2023-05-10T00:21:38;1.70;;;1.30;;
75593;SDS011;64176;49.156;7.810;2023-05-10T00:24:22;3.08;;;1.20;;
75593;SDS011;64176;49.156;7.810;2023-05-10T00:27:06;1.58;;;1.17;;
75593;SDS011;64176;49.156;7.810;2023-05-10T00:29:50;1.10;;;1.00;;
75593;SDS011;64176;49.156;7.810;2023-05-10T00:32:35;1.23;;;1.13;;
75593;SDS011;64176;49.156;7.810;2023-05-10T00:35:19;1.08;;;0.98;;
75593;SDS011;64176;49.156;7.810;2023-05-10T00:38:03;2.35;;;1.30;;
75593;SDS011;64176;49.156;7.810;2023-05-10T00:40:47;2.42;;;1.52;;
75593;SDS011;64176;49.156;7.810;2023-05-10T00:46:24;2.15;;;1.15;;
75593;SDS011;64176;49.156;7.810;2023-05-10T00:49:10;2.20;;;1.08;;
75593;SDS011;64176;49.156;7.810;2023-05-10T00:51:57;1.10;;;1.00;;
75593;SDS011;64176;49.156;7.810;2023-05-10T00:54:43;1.25;;;1.00;;
75593;SDS011;64176;49.156;7.810;2023-05-10T00:57:28;1.25;;;0.73;;
75593;SDS011;64176;49.156;7.810;2023-05-10T01:00:13;1.30;;;1.00;;
75593;SDS011;64176;49.156;7.810;2023-05-10T01:03:01;1.10;;;1.00;;
75593;SDS011;64176;49.156;7.810;2023-05-10T01:05:46;1.00;;;0.80;;
75593;SDS011;64176;49.156;7.810;2023-05-10T01:08:30;1.98;;;1.23;;
75593;SDS011;64176;49.156;7.810;2023-05-10T01:11:14;2.92;;;1.30;;
75593;SDS011;64176;49.156;7.810;2023-05-10T01:13:59;2.95;;;1.10;;
75593;SDS011;64176;49.156;7.810;2023-05-10T01:16:43;1.77;;;1.30;;
75593;SDS011;64176;49.156;7.810;2023-05-10T01:19:30;1.65;;;1.30;;
75593;SDS011;64176;49.156;7.810;2023-05-10T01:25:44;1.45;;;1.35;;
75593;SDS011;64176;49.156;7.810;2023-05-10T01:40:56;2.08;;;1.88;;
75593;SDS011;64176;49.156;7.810;2023-05-10T01:43:42;2.13;;;1.35;;
75593;SDS011;64176;49.156;7.810;2023-05-10T01:46:38;2.33;;;1.67;;
75593;SDS011;64176;49.156;7.810;2023-05-10T01:49:32;2.92;;;1.50;;
75593;SDS011;64176;49.156;7.810;2023-05-10T01:52:22;2.05;;;1.38;;
75593;SDS011;64176;49.156;7.810;2023-05-10T01:55:13;2.13;;;1.92;;
75593;SDS011;64176;49.156;7.810;2023-05-10T01:58:02;11.57;;;2.55;;
75593;SDS011;64176;49.156;7.810;2023-05-10T02:00:51;1.60;;;1.50;;
75593;SDS011;64176;49.156;7.810;2023-05-10T02:03:37;2.47;;;1.90;;
75593;SDS011;64176;49.156;7.810;2023-05-10T02:06:23;2.72;;;1.80;;
75593;SDS011;64176;49.156;7.810;2023-05-10T02:09:10;3.75;;;1.88;;
75593;SDS011;64176;49.156;7.810;2023-05-10T02:11:55;3.08;;;2.30;;
75593;SDS011;64176;49.156;7.810;2023-05-10T02:14:43;2.88;;;1.90;;
75593;SDS011;64176;49.156;7.810;2023-05-10T02:17:29;2.15;;;1.95;;
75593;SDS011;64176;49.156;7.810;2023-05-10T02:20:15;2.78;;;1.85;;
75593;SDS011;64176;49.156;7.810;2023-05-10T02:23:06;2.25;;;2.03;;
75593;SDS011;64176;49.156;7.810;2023-05-10T02:25:53;2.20;;;2.00;;
75593;SDS011;64176;49.156;7.810;2023-05-10T02:28:39;2.88;;;1.88;;
75593;SDS011;64176;49.156;7.810;2023-05-10T02:31:24;2.28;;;1.80;;
75593;SDS011;64176;49.156;7.810;2023-05-10T02:34:09;3.25;;;2.10;;
75593;SDS011;64176;49.156;7.810;2023-05-10T02:36:55;3.92;;;2.22;;
75593;SDS011;64176;49.156;7.810;2023-05-10T02:39:40;5.45;;;2.55;;
75593;SDS011;64176;49.156;7.810;2023-05-10T02:42:27;4.63;;;2.28;;
75593;SDS011;64176;49.156;7.810;2023-05-10T02:45:17;3.70;;;3.08;;
75593;SDS011;64176;49.156;7.810;2023-05-10T02:48:04;2.67;;;2.47;;
75593;SDS011;64176;49.156;7.810;2023-05-10T02:50:48;4.60;;;2.63;;
75593;SDS011;64176;49.156;7.810;2023-05-10T02:53:36;3.28;;;2.20;;
75593;SDS011;64176;49.156;7.810;2023-05-10T02:56:25;4.30;;;2.53;;
75593;SDS011;64176;49.156;7.810;2023-05-10T02:59:15;3.25;;;2.65;;
75593;SDS011;64176;49.156;7.810;2023-05-10T03:01:59;3.47;;;2.72;;
75593;SDS011;64176;49.156;7.810;2023-05-10T03:04:47;4.07;;;3.15;;
75593;SDS011;64176;49.156;7.810;2023-05-10T03:07:32;4.43;;;2.53;;
75593;SDS011;64176;49.156;7.810;2023-05-10T03:10:17;3.55;;;3.08;;
75593;SDS011;64176;49.156;7.810;2023-05-10T03:13:13;3.55;;;2.40;;
75593;SDS011;64176;49.156;7.810;2023-05-10T03:16:06;4.45;;;2.72;;
75593;SDS011;64176;49.156;7.810;2023-05-10T03:19:01;2.97;;;2.67;;
75593;SDS011;64176;49.156;7.810;2023-05-10T03:21:51;3.85;;;2.67;;
75593;SDS011;64176;49.156;7.810;2023-05-10T03:24:36;4.28;;;2.45;;
75593;SDS011;64176;49.156;7.810;2023-05-10T03:27:26;4.78;;;3.25;;
75593;SDS011;64176;49.156;7.810;2023-05-10T03:30:14;4.07;;;3.10;;
75593;SDS011;64176;49.156;7.810;2023-05-10T03:33:05;3.90;;;2.90;;
75593;SDS011;64176;49.156;7.810;2023-05-10T03:35:56;3.58;;;3.22;;
75593;SDS011;64176;49.156;7.810;2023-05-10T03:38:40;4.28;;;3.40;;
75593;SDS011;64176;49.156;7.810;2023-05-10T03:41:24;4.45;;;2.75;;
75593;SDS011;64176;49.156;7.810;2023-05-10T03:44:09;4.70;;;3.33;;
75593;SDS011;64176;49.156;7.810;2023-05-10T03:46:55;5.53;;;3.90;;
75593;SDS011;64176;49.156;7.810;2023-05-10T03:49:41;4.38;;;3.25;;
75593;SDS011;64176;49.156;7.810;2023-05-10T03:52:25;3.92;;;3.53;;
75593;SDS011;64176;49.156;7.810;2023-05-10T03:55:09;4.60;;;2.92;;
75593;SDS011;64176;49.156;7.810;2023-05-10T03:57:53;3.67;;;3.38;;
75593;SDS011;64176;49.156;7.810;2023-05-10T04:00:39;3.53;;;3.22;;
75593;SDS011;64176;49.156;7.810;2023-05-10T04:03:31;3.67;;;2.95;;
75593;SDS011;64176;49.156;7.810;2023-05-10T04:06:16;5.80;;;3.80;;
75593;SDS011;64176;49.156;7.810;2023-05-10T04:09:03;4.55;;;3.40;;
75593;SDS011;64176;49.156;7.810;2023-05-10T04:11:48;3.75;;;3.38;;
75593;SDS011;64176;49.156;7.810;2023-05-10T04:14:31;5.43;;;3.60;;
75593;SDS011;64176;49.156;7.810;2023-05-10T04:17:15;4.22;;;3.40;;
75593;SDS011;64176;49.156;7.810;2023-05-10T04:19:59;4.15;;;3.70;;
75593;SDS011;64176;49.156;7.810;2023-05-10T04:22:43;4.40;;;3.42;;
75593;SDS011;64176;49.156;7.810;2023-05-10T04:25:27;4.45;;;3.13;;
75593;SDS011;64176;49.156;7.810;2023-05-10T04:28:11;3.90;;;2.70;;
75593;SDS011;64176;49.156;7.810;2023-05-10T04:31:08;3.20;;;2.50;;
75593;SDS011;64176;49.156;7.810;2023-05-10T04:33:56;2.65;;;2.15;;
75593;SDS011;64176;49.156;7.810;2023-05-10T04:36:41;2.05;;;1.80;;
75593;SDS011;64176;49.156;7.810;2023-05-10T04:39:24;2.50;;;2.30;;
75593;SDS011;64176;49.156;7.810;2023-05-10T04:42:08;4.20;;;2.33;;
75593;SDS011;64176;49.156;7.810;2023-05-10T04:44:55;2.97;;;2.00;;
75593;SDS011;64176;49.156;7.810;2023-05-10T04:47:39;3.22;;;1.85;;
75593;SDS011;64176;49.156;7.810;2023-05-10T04:53:10;2.30;;;1.67;;
75593;SDS011;64176;49.156;7.810;2023-05-10T04:55:54;3.70;;;1.92;;
75593;SDS011;64176;49.156;7.810;2023-05-10T04:58:38;2.97;;;2.65;;
75593;SDS011;64176;49.156;7.810;2023-05-10T05:01:23;2.30;;;1.48;;
75593;SDS011;64176;49.156;7.810;2023-05-10T05:04:07;2.78;;;2.00;;
75593;SDS011;64176;49.156;7.810;2023-05-10T05:06:51;3.20;;;2.17;;
75593;SDS011;64176;49.156;7.810;2023-05-10T05:09:39;4.60;;;2.08;;
75593;SDS011;64176;49.156;7.810;2023-05-10T05:12:24;2.78;;;2.35;;
75593;SDS011;64176;49.156;7.810;2023-05-10T05:15:08;2.05;;;1.70;;
75593;SDS011;64176;49.156;7.810;2023-05-10T05:17:53;4.60;;;1.67;;
75593;SDS011;64176;49.156;7.810;2023-05-10T05:20:37;2.30;;;1.83;;
75593;SDS011;64176;49.156;7.810;2023-05-10T05:23:21;2.30;;;1.75;;
75593;SDS011;64176;49.156;7.810;2023-05-10T05:26:08;3.17;;;1.90;;
75593;SDS011;64176;49.156;7.810;2023-05-10T05:28:57;2.22;;;1.77;;
75593;SDS011;64176;49.156;7.810;2023-05-10T05:31:41;3.78;;;1.90;;
75593;SDS011;64176;49.156;7.810;2023-05-10T05:34:25;5.93;;;2.85;;
75593;SDS011;64176;49.156;7.810;2023-05-10T05:37:12;1.95;;;1.75;;
75593;SDS011;64176;49.156;7.810;2023-05-10T05:39:57;2.20;;;1.60;;
75593;SDS011;64176;49.156;7.810;2023-05-10T05:42:41;2.65;;;1.83;;
75593;SDS011;64176;49.156;7.810;2023-05-10T05:45:25;2.38;;;2.17;;
75593;SDS011;64176;49.156;7.810;2023-05-10T05:48:09;1.90;;;1.77;;
75593;SDS011;64176;49.156;7.810;2023-05-10T05:50:56;1.63;;;1.40;;
75593;SDS011;64176;49.156;7.810;2023-05-10T05:53:41;2.28;;;1.88;;
75593;SDS011;64176;49.156;7.810;2023-05-10T05:56:25;4.38;;;1.73;;
75593;SDS011;64176;49.156;7.810;2023-05-10T05:59:09;4.88;;;1.63;;
75593;SDS011;64176;49.156;7.810;2023-05-10T06:01:52;1.85;;;1.67;;
75593;SDS011;64176;49.156;7.810;2023-05-10T06:04:37;5.95;;;2.08;;
75593;SDS011;64176;49.156;7.810;2023-05-10T06:07:21;2.33;;;1.55;;
75593;SDS011;64176;49.156;7.810;2023-05-10T06:10:05;2.60;;;1.90;;
75593;SDS011;64176;49.156;7.810;2023-05-10T06:12:50;2.20;;;1.48;;
75593;SDS011;64176;49.156;7.810;2023-05-10T06:15:33;1.75;;;1.50;;
75593;SDS011;64176;49.156;7.810;2023-05-10T06:18:18;3.45;;;1.30;;
75593;SDS011;64176;49.156;7.810;2023-05-10T06:21:02;2.28;;;1.60;;
75593;SDS011;64176;49.156;7.810;2023-05-10T06:23:48;3.13;;;1.23;;
75593;SDS011;64176;49.156;7.810;2023-05-10T06:26:32;1.40;;;1.30;;
75593;SDS011;64176;49.156;7.810;2023-05-10T06:29:16;1.63;;;1.52;;
75593;SDS011;64176;49.156;7.810;2023-05-10T06:32:01;1.60;;;1.15;;
75593;SDS011;64176;49.156;7.810;2023-05-10T06:34:47;1.48;;;1.13;;
75593;SDS011;64176;49.156;7.810;2023-05-10T06:37:31;1.30;;;1.05;;
75593;SDS011;64176;49.156;7.810;2023-05-10T06:40:15;1.60;;;1.27;;
75593;SDS011;64176;49.156;7.810;2023-05-10T06:42:59;1.88;;;1.30;;
75593;SDS011;64176;49.156;7.810;2023-05-10T06:45:43;1.63;;;1.20;;
75593;SDS011;64176;49.156;7.810;2023-05-10T06:48:28;2.10;;;1.33;;
75593;SDS011;64176;49.156;7.810;2023-05-10T06:51:11;1.40;;;1.20;;
75593;SDS011;64176;49.156;7.810;2023-05-10T06:53:55;2.97;;;1.80;;
75593;SDS011;64176;49.156;7.810;2023-05-10T06:56:39;1.75;;;1.38;;
75593;SDS011;64176;49.156;7.810;2023-05-10T06:59:23;1.98;;;1.30;;
75593;SDS011;64176;49.156;7.810;2023-05-10T07:02:07;2.88;;;1.70;;
75593;SDS011;64176;49.156;7.810;2023-05-10T07:04:51;4.85;;;1.42;;
75593;SDS011;64176;49.156;7.810;2023-05-10T07:07:35;1.65;;;1.55;;
75593;SDS011;64176;49.156;7.810;2023-05-10T07:10:19;1.65;;;1.45;;
75593;SDS011;64176;49.156;7.810;2023-05-10T07:13:04;1.75;;;1.60;;
75593;SDS011;64176;49.156;7.810;2023-05-10T07:15:47;2.13;;;1.77;;
75593;SDS011;64176;49.156;7.810;2023-05-10T07:18:31;1.65;;;1.50;;
75593;SDS011;64176;49.156;7.810;2023-05-10T07:21:18;1.48;;;1.38;;
75593;SDS011;64176;49.156;7.810;2023-05-10T07:24:02;3.45;;;1.48;;
75593;SDS011;64176;49.156;7.810;2023-05-10T07:26:46;3.72;;;1.65;;
75593;SDS011;64176;49.156;7.810;2023-05-10T07:29:33;3.80;;;1.38;;
75593;SDS011;64176;49.156;7.810;2023-05-10T07:32:17;2.13;;;1.67;;
75593;SDS011;64176;49.156;7.810;2023-05-10T07:35:04;2.92;;;1.90;;
75593;SDS011;64176;49.156;7.810;2023-05-10T07:37:49;1.60;;;1.50;;
75593;SDS011;64176;49.156;7.810;2023-05-10T07:40:33;1.75;;;1.65;;
75593;SDS011;64176;49.156;7.810;2023-05-10T07:43:17;2.03;;;1.70;;
75593;SDS011;64176;49.156;7.810;2023-05-10T07:46:01;3.72;;;1.65;;
75593;SDS011;64176;49.156;7.810;2023-05-10T07:48:45;1.92;;;1.50;;
75593;SDS011;64176;49.156;7.810;2023-05-10T07:51:29;2.42;;;1.85;;
75593;SDS011;64176;49.156;7.810;2023-05-10T07:54:18;2.28;;;1.83;;
75593;SDS011;64176;49.156;7.810;2023-05-10T07:57:07;1.80;;;1.70;;
75593;SDS011;64176;49.156;7.810;2023-05-10T07:59:52;2.00;;;1.75;;
75593;SDS011;64176;49.156;7.810;2023-05-10T08:02:38;2.53;;;1.63;;
75593;SDS011;64176;49.156;7.810;2023-05-10T08:05:23;2.00;;;1.35;;
75593;SDS011;64176;49.156;7.810;2023-05-10T08:08:09;2.50;;;1.75;;
75593;SDS011;64176;49.156;7.810;2023-05-10T08:10:53;1.60;;;1.50;;
75593;SDS011;64176;49.156;7.810;2023-05-10T08:13:37;3.03;;;1.67;;
75593;SDS011;64176;49.156;7.810;2023-05-10T08:16:21;1.60;;;1.50;;
75593;SDS011;64176;49.156;7.810;2023-05-10T08:19:07;19.15;;;9.35;;
75593;SDS011;64176;49.156;7.810;2023-05-10T08:21:51;2.10;;;1.60;;
75593;SDS011;64176;49.156;7.810;2023-05-10T08:24:37;1.48;;;1.33;;
75593;SDS011;64176;49.156;7.810;2023-05-10T08:27:22;1.52;;;1.40;;
75593;SDS011;64176;49.156;7.810;2023-05-10T08:30:06;2.40;;;1.20;;
75593;SDS011;64176;49.156;7.810;2023-05-10T08:32:50;0.70;;;0.65;;
75593;SDS011;64176;49.156;7.810;2023-05-10T08:35:34;1.50;;;1.15;;
75593;SDS011;64176;49.156;7.810;2023-05-10T08:38:18;1.02;;;0.95;;
75593;SDS011;64176;49.156;7.810;2023-05-10T08:41:02;1.30;;;1.00;;
75593;SDS011;64176;49.156;7.810;2023-05-10T08:43:50;0.65;;;0.60;;
75593;SDS011;64176;49.156;7.810;2023-05-10T08:46:37;0.80;;;0.80;;
75593;SDS011;64176;49.156;7.810;2023-05-10T08:49:27;1.45;;;0.70;;
75593;SDS011;64176;49.156;7.810;2023-05-10T08:52:15;1.23;;;1.10;;
75593;SDS011;64176;49.156;7.810;2023-05-10T08:55:01;3.15;;;1.33;;
75593;SDS011;64176;49.156;7.810;2023-05-10T08:57:46;5.07;;;0.85;;
75593;SDS011;64176;49.156;7.810;2023-05-10T09:00:30;1.25;;;0.88;;
75593;SDS011;64176;49.156;7.810;2023-05-10T09:03:14;1.85;;;0.70;;
75593;SDS011;64176;49.156;7.810;2023-05-10T09:06:01;1.98;;;1.15;;
75593;SDS011;64176;49.156;7.810;2023-05-10T09:08:45;1.05;;;0.95;;
75593;SDS011;64176;49.156;7.810;2023-05-10T09:11:30;1.15;;;1.02;;
75593;SDS011;64176;49.156;7.810;2023-05-10T09:14:15;2.35;;;0.90;;
75593;SDS011;64176;49.156;7.810;2023-05-10T09:16:59;2.63;;;1.05;;
75593;SDS011;64176;49.156;7.810;2023-05-10T09:19:45;1.10;;;1.00;;
75593;SDS011;64176;49.156;7.810;2023-05-10T09:22:32;2.55;;;1.17;;
75593;SDS011;64176;49.156;7.810;2023-05-10T09:25:19;2.30;;;1.05;;
75593;SDS011;64176;49.156;7.810;2023-05-10T09:28:05;1.70;;;1.30;;
75593;SDS011;64176;49.156;7.810;2023-05-10T09:30:52;2.28;;;1.38;;
75593;SDS011;64176;49.156;7.810;2023-05-10T09:33:45;1.45;;;1.23;;
75593;SDS011;64176;49.156;7.810;2023-05-10T09:36:33;2.47;;;1.45;;
75593;SDS011;64176;49.156;7.810;2023-05-10T09:39:17;2.30;;;1.20;;
75593;SDS011;64176;49.156;7.810;2023-05-10T09:42:05;1.42;;;1.33;;
75593;SDS011;64176;49.156;7.810;2023-05-10T09:44:50;3.58;;;2.05;;
75593;SDS011;64176;49.156;7.810;2023-05-10T09:47:35;2.40;;;1.48;;
75593;SDS011;64176;49.156;7.810;2023-05-10T09:50:24;2.08;;;1.63;;
75593;SDS011;64176;49.156;7.810;2023-05-10T09:53:09;3.85;;;1.80;;
75593;SDS011;64176;49.156;7.810;2023-05-10T09:55:53;2.78;;;1.38;;
75593;SDS011;64176;49.156;7.810;2023-05-10T09:58:37;3.53;;;1.60;;
75593;SDS011;64176;49.156;7.810;2023-05-10T10:01:25;2.40;;;1.70;;
75593;SDS011;64176;49.156;7.810;2023-05-10T10:04:10;1.50;;;1.40;;
75593;SDS011;64176;49.156;7.810;2023-05-10T10:07:13;2.58;;;1.40;;
75593;SDS011;64176;49.156;7.810;2023-05-10T10:09:57;1.85;;;1.17;;
75593;SDS011;64176;49.156;7.810;2023-05-10T10:12:44;4.22;;;1.08;;
75593;SDS011;64176;49.156;7.810;2023-05-10T10:18:13;1.35;;;0.95;;
75593;SDS011;64176;49.156;7.810;2023-05-10T10:21:00;1.48;;;1.10;;
75593;SDS011;64176;49.156;7.810;2023-05-10T10:23:45;1.33;;;1.25;;
75593;SDS011;64176;49.156;7.810;2023-05-10T10:26:30;2.20;;;0.90;;
75593;SDS011;64176;49.156;7.810;2023-05-10T10:35:08;2.30;;;1.00;;
75593;SDS011;64176;49.156;7.810;2023-05-10T10:37:53;1.23;;;0.60;;
75593;SDS011;64176;49.156;7.810;2023-05-10T10:40:36;2.08;;;1.10;;
75593;SDS011;64176;49.156;7.810;2023-05-10T10:49:09;2.22;;;0.45;;
75593;SDS011;64176;49.156;7.810;2023-05-10T10:55:18;2.83;;;1.23;;
75593;SDS011;64176;49.156;7.810;2023-05-10T10:58:06;2.63;;;0.77;;
75593;SDS011;64176;49.156;7.810;2023-05-10T11:00:51;0.65;;;0.65;;
75593;SDS011;64176;49.156;7.810;2023-05-10T11:06:46;2.70;;;0.80;;
75593;SDS011;64176;49.156;7.810;2023-05-10T11:09:30;2.72;;;0.90;;
75593;SDS011;64176;49.156;7.810;2023-05-10T11:12:23;4.85;;;1.10;;
75593;SDS011;64176;49.156;7.810;2023-05-10T11:15:08;0.70;;;0.70;;
75593;SDS011;64176;49.156;7.810;2023-05-10T11:17:53;0.70;;;0.63;;
75593;SDS011;64176;49.156;7.810;2023-05-10T11:20:38;1.83;;;0.85;;
75593;SDS011;64176;49.156;7.810;2023-05-10T11:23:23;1.48;;;0.77;;
75593;SDS011;64176;49.156;7.810;2023-05-10T11:26:07;2.22;;;0.70;;
75593;SDS011;64176;49.156;7.810;2023-05-10T11:28:55;0.80;;;0.60;;
75593;SDS011;64176;49.156;7.810;2023-05-10T11:31:45;1.20;;;0.60;;
75593;SDS011;64176;49.156;7.810;2023-05-10T11:34:31;1.05;;;0.43;;
75593;SDS011;64176;49.156;7.810;2023-05-10T11:37:17;0.60;;;0.57;;
75593;SDS011;64176;49.156;7.810;2023-05-10T11:40:02;0.57;;;0.57;;
75593;SDS011;64176;49.156;7.810;2023-05-10T11:42:47;1.00;;;0.52;;
75593;SDS011;64176;49.156;7.810;2023-05-10T11:45:32;1.33;;;0.85;;
75593;SDS011;64176;49.156;7.810;2023-05-10T11:48:16;1.15;;;0.50;;
75593;SDS011;64176;49.156;7.810;2023-05-10T11:51:06;0.57;;;0.57;;
75593;SDS011;64176;49.156;7.810;2023-05-10T11:53:52;1.27;;;0.50;;
75593;SDS011;64176;49.156;7.810;2023-05-10T11:56:40;0.52;;;0.52;;
75593;SDS011;64176;49.156;7.810;2023-05-10T11:59:24;2.75;;;0.50;;
75593;SDS011;64176;49.156;7.810;2023-05-10T12:02:09;0.95;;;0.73;;
75593;SDS011;64176;49.156;7.810;2023-05-10T12:04:54;1.40;;;0.70;;
75593;SDS011;64176;49.156;7.810;2023-05-10T12:07:44;2.33;;;0.60;;
75593;SDS011;64176;49.156;7.810;2023-05-10T12:10:28;0.40;;;0.40;;
75593;SDS011;64176;49.156;7.810;2023-05-10T12:13:12;1.77;;;0.40;;
75593;SDS011;64176;49.156;7.810;2023-05-10T12:15:58;0.90;;;0.40;;
75593;SDS011;64176;49.156;7.810;2023-05-10T12:18:45;2.28;;;0.65;;
75593;SDS011;64176;49.156;7.810;2023-05-10T12:21:34;1.98;;;0.98;;
75593;SDS011;64176;49.156;7.810;2023-05-10T12:24:21;1.13;;;0.55;;
75593;SDS011;64176;49.156;7.810;2023-05-10T12:27:05;0.50;;;0.38;;
75593;SDS011;64176;49.156;7.810;2023-05-10T12:29:51;1.55;;;1.08;;
75593;SDS011;64176;49.156;7.810;2023-05-10T12:35:25;4.05;;;0.60;;
75593;SDS011;64176;49.156;7.810;2023-05-10T12:41:27;1.50;;;1.40;;
75593;SDS011;64176;49.156;7.810;2023-05-10T12:44:12;0.70;;;0.70;;
75593;SDS011;64176;49.156;7.810;2023-05-10T12:46:56;6.20;;;1.60;;
75593;SDS011;64176;49.156;7.810;2023-05-10T12:49:43;0.88;;;0.55;;
75593;SDS011;64176;49.156;7.810;2023-05-10T12:52:27;0.90;;;0.77;;
75593;SDS011;64176;49.156;7.810;2023-05-10T12:55:12;3.38;;;1.50;;
75593;SDS011;64176;49.156;7.810;2023-05-10T12:57:56;1.10;;;0.55;;
75593;SDS011;64176;49.156;7.810;2023-05-10T13:00:40;1.65;;;1.00;;
75593;SDS011;64176;49.156;7.810;2023-05-10T13:03:27;5.25;;;0.70;;
75593;SDS011;64176;49.156;7.810;2023-05-10T13:06:11;2.97;;;0.70;;
75593;SDS011;64176;49.156;7.810;2023-05-10T13:08:57;0.55;;;0.50;;
75593;SDS011;64176;49.156;7.810;2023-05-10T13:11:41;0.20;;;0.20;;
75593;SDS011;64176;49.156;7.810;2023-05-10T13:14:29;1.85;;;0.63;;
75593;SDS011;64176;49.156;7.810;2023-05-10T13:17:14;0.77;;;0.30;;
75593;SDS011;64176;49.156;7.810;2023-05-10T13:19:57;0.47;;;0.30;;
75593;SDS011;64176;49.156;7.810;2023-05-10T13:22:42;0.88;;;0.40;;
75593;SDS011;64176;49.156;7.810;2023-05-10T13:25:27;0.98;;;0.50;;
75593;SDS011;64176;49.156;7.810;2023-05-10T13:28:11;1.75;;;0.38;;
75593;SDS011;64176;49.156;7.810;2023-05-10T13:30:55;1.13;;;0.50;;
75593;SDS011;64176;49.156;7.810;2023-05-10T13:33:39;0.40;;;0.40;;
75593;SDS011;64176;49.156;7.810;2023-05-10T13:36:23;1.13;;;0.45;;
75593;SDS011;64176;49.156;7.810;2023-05-10T13:39:07;0.63;;;0.35;;
75593;SDS011;64176;49.156;7.810;2023-05-10T13:44:37;1.92;;;0.30;;
75593;SDS011;64176;49.156;7.810;2023-05-10T13:47:22;0.50;;;0.40;;
75593;SDS011;64176;49.156;7.810;2023-05-10T13:50:06;0.80;;;0.50;;
75593;SDS011;64176;49.156;7.810;2023-05-10T13:52:53;2.10;;;1.25;;
75593;SDS011;64176;49.156;7.810;2023-05-10T13:55:38;0.65;;;0.47;;
75593;SDS011;64176;49.156;7.810;2023-05-10T13:58:22;0.40;;;0.40;;
75593;SDS011;64176;49.156;7.810;2023-05-10T14:01:07;0.65;;;0.50;;
75593;SDS011;64176;49.156;7.810;2023-05-10T14:03:51;0.50;;;0.30;;
75593;SDS011;64176;49.156;7.810;2023-05-10T14:06:37;0.75;;;0.60;;
75593;SDS011;64176;49.156;7.810;2023-05-10T14:09:21;0.88;;;0.80;;
75593;SDS011;64176;49.156;7.810;2023-05-10T14:12:05;2.38;;;0.50;;
75593;SDS011;64176;49.156;7.810;2023-05-10T14:14:49;1.45;;;0.50;;
75593;SDS011;64176;49.156;7.810;2023-05-10T14:17:38;0.80;;;0.65;;
75593;SDS011;64176;49.156;7.810;2023-05-10T14:20:22;2.10;;;0.40;;
75593;SDS011;64176;49.156;7.810;2023-05-10T14:23:06;0.30;;;0.30;;
75593;SDS011;64176;49.156;7.810;2023-05-10T14:25:51;0.40;;;0.40;;
75593;SDS011;64176;49.156;7.810;2023-05-10T14:28:35;1.13;;;0.43;;
75593;SDS011;64176;49.156;7.810;2023-05-10T14:31:19;0.47;;;0.28;;
75593;SDS011;64176;49.156;7.810;2023-05-10T14:34:09;2.33;;;0.35;;
75593;SDS011;64176;49.156;7.810;2023-05-10T14:36:56;0.52;;;0.40;;
75593;SDS011;64176;49.156;7.810;2023-05-10T14:39:40;1.40;;;0.50;;
75593;SDS011;64176;49.156;7.810;2023-05-10T14:42:25;0.90;;;0.65;;
75593;SDS011;64176;49.156;7.810;2023-05-10T14:45:10;0.82;;;0.30;;
75593;SDS011;64176;49.156;7.810;2023-05-10T14:47:54;1.98;;;0.45;;
75593;SDS011;64176;49.156;7.810;2023-05-10T14:50:38;2.22;;;0.40;;
75593;SDS011;64176;49.156;7.810;2023-05-10T14:53:23;1.10;;;0.20;;
75593;SDS011;64176;49.156;7.810;2023-05-10T14:56:07;0.77;;;0.40;;
75593;SDS011;64176;49.156;7.810;2023-05-10T14:58:51;0.45;;;0.20;;
75593;SDS011;64176;49.156;7.810;2023-05-10T15:01:35;3.00;;;0.50;;
75593;SDS011;64176;49.156;7.810;2023-05-10T15:04:21;0.95;;;0.20;;
75593;SDS011;64176;49.156;7.810;2023-05-10T15:07:04;0.40;;;0.40;;
75593;SDS011;64176;49.156;7.810;2023-05-10T15:09:52;1.10;;;0.50;;
75593;SDS011;64176;49.156;7.810;2023-05-10T15:12:38;0.40;;;0.40;;
75593;SDS011;64176;49.156;7.810;2023-05-10T15:15:22;0.40;;;0.40;;
75593;SDS011;64176;49.156;7.810;2023-05-10T15:18:06;0.38;;;0.38;;
75593;SDS011;64176;49.156;7.810;2023-05-10T15:20:50;0.50;;;0.43;;
75593;SDS011;64176;49.156;7.810;2023-05-10T15:23:34;0.52;;;0.30;;
75593;SDS011;64176;49.156;7.810;2023-05-10T15:26:18;0.40;;;0.40;;
75593;SDS011;64176;49.156;7.810;2023-05-10T15:29:02;1.23;;;0.63;;
75593;SDS011;64176;49.156;7.810;2023-05-10T15:31:51;0.90;;;0.35;;
75593;SDS011;64176;49.156;7.810;2023-05-10T15:34:38;0.85;;;0.57;;
75593;SDS011;64176;49.156;7.810;2023-05-10T15:37:24;1.58;;;0.40;;
75593;SDS011;64176;49.156;7.810;2023-05-10T15:40:08;0.73;;;0.45;;
75593;SDS011;64176;49.156;7.810;2023-05-10T15:42:55;0.82;;;0.50;;
75593;SDS011;64176;49.156;7.810;2023-05-10T15:45:39;0.40;;;0.40;;
75593;SDS011;64176;49.156;7.810;2023-05-10T15:48:24;1.17;;;0.47;;
75593;SDS011;64176;49.156;7.810;2023-05-10T15:51:10;0.70;;;0.50;;
75593;SDS011;64176;49.156;7.810;2023-05-10T15:53:54;0.57;;;0.30;;
75593;SDS011;64176;49.156;7.810;2023-05-10T15:59:25;0.63;;;0.63;;
75593;SDS011;64176;49.156;7.810;2023-05-10T16:02:09;1.00;;;0.45;;
75593;SDS011;64176;49.156;7.810;2023-05-10T16:04:56;0.47;;;0.40;;
75593;SDS011;64176;49.156;7.810;2023-05-10T16:07:42;0.40;;;0.40;;
75593;SDS011;64176;49.156;7.810;2023-05-10T16:10:26;3.70;;;0.73;;
75593;SDS011;64176;49.156;7.810;2023-05-10T16:13:10;1.77;;;0.60;;
75593;SDS011;64176;49.156;7.810;2023-05-10T16:15:55;0.45;;;0.40;;
75593;SDS011;64176;49.156;7.810;2023-05-10T16:18:41;1.38;;;0.40;;
75593;SDS011;64176;49.156;7.810;2023-05-10T16:21:25;0.93;;;0.90;;
75593;SDS011;64176;49.156;7.810;2023-05-10T16:24:08;3.97;;;1.23;;
75593;SDS011;64176;49.156;7.810;2023-05-10T16:26:53;0.88;;;0.57;;
75593;SDS011;64176;49.156;7.810;2023-05-10T16:29:37;0.45;;;0.30;;
75593;SDS011;64176;49.156;7.810;2023-05-10T16:32:21;1.13;;;0.95;;
75593;SDS011;64176;49.156;7.810;2023-05-10T16:35:05;2.80;;;0.63;;
75593;SDS011;64176;49.156;7.810;2023-05-10T16:37:50;1.17;;;1.00;;
75593;SDS011;64176;49.156;7.810;2023-05-10T16:40:35;1.13;;;1.02;;
75593;SDS011;64176;49.156;7.810;2023-05-10T16:43:23;0.70;;;0.68;;
75593;SDS011;64176;49.156;7.810;2023-05-10T16:46:09;1.15;;;1.05;;
75593;SDS011;64176;49.156;7.810;2023-05-10T16:48:54;0.35;;;0.35;;
75593;SDS011;64176;49.156;7.810;2023-05-10T16:51:38;0.75;;;0.70;;
75593;SDS011;64176;49.156;7.810;2023-05-10T16:54:25;2.80;;;0.93;;
75593;SDS011;64176;49.156;7.810;2023-05-10T16:57:10;0.40;;;0.40;;
75593;SDS011;64176;49.156;7.810;2023-05-10T16:59:54;1.50;;;0.80;;
75593;SDS011;64176;49.156;7.810;2023-05-10T17:02:39;0.50;;;0.47;;
75593;SDS011;64176;49.156;7.810;2023-05-10T17:05:23;0.57;;;0.52;;
75593;SDS011;64176;49.156;7.810;2023-05-10T17:08:08;0.60;;;0.60;;
75593;SDS011;64176;49.156;7.810;2023-05-10T17:10:52;5.00;;;0.85;;
75593;SDS011;64176;49.156;7.810;2023-05-10T17:16:22;0.80;;;0.80;;
75593;SDS011;64176;49.156;7.810;2023-05-10T17:19:09;1.65;;;0.47;;
75593;SDS011;64176;49.156;7.810;2023-05-10T17:21:56;5.50;;;3.75;;
75593;SDS011;64176;49.156;7.810;2023-05-10T17:24:40;1.48;;;1.10;;
75593;SDS011;64176;49.156;7.810;2023-05-10T17:27:24;2.83;;;0.70;;
75593;SDS011;64176;49.156;7.810;2023-05-10T17:30:08;1.38;;;0.85;;
75593;SDS011;64176;49.156;7.810;2023-05-10T17:32:52;4.45;;;2.20;;
75593;SDS011;64176;49.156;7.810;2023-05-10T17:35:37;3.33;;;2.10;;